Time;durP1;ratioP1;P1;durP2;ratioP2;P2;SDS_P1;SDS_P2;PMS_P1;PMS_P2;Temp;Humidity;BMP_temperature;BMP_pressure;BME280_temperature;BME280_humidity;BME280_pressure;Samples;Min_cycle;Max_cycle;Signal;HPM_P1;HPM_P2
2022/11/25 00:02:16;;;;;;;14.68;3.50;;;;;;;10.03;72.83;100840.22;5027238;28;20487;-60
2022/11/25 00:04:42;;;;;;;18.25;3.47;;;;;;;10.03;72.84;100833.81;5028028;28;20509;-60
2022/11/25 00:07:07;;;;;;;10.73;2.90;;;;;;;10.07;72.96;100837.78;5027740;28;20033;-62
2022/11/25 00:09:32;;;;;;;13.90;3.38;;;;;;;10.08;72.87;100831.13;5024678;28;20033;-59
2022/11/25 00:11:58;;;;;;;15.18;3.05;;;;;;;10.07;73.02;100837.78;5029261;28;20498;-59
2022/11/25 00:14:23;;;;;;;12.15;3.15;;;;;;;10.07;72.63;100841.38;5027296;28;20817;-59
2022/11/25 00:16:48;;;;;;;12.85;2.75;;;;;;;10.10;73.12;100834.50;5026875;28;20037;-60
2022/11/25 00:19:14;;;;;;;14.45;2.80;;;;;;;10.11;73.12;100832.56;5027038;28;20428;-60
2022/11/25 00:21:39;;;;;;;14.43;3.67;;;;;;;10.08;73.29;100823.66;5026714;28;20026;-60
2022/11/25 00:24:06;;;;;;;12.18;3.20;;;;;;;10.07;73.22;100813.66;5029349;28;20424;-60
2022/11/25 00:26:34;;;;;;;21.95;3.47;;;;;;;10.09;73.26;100827.25;5027232;28;20416;-60
2022/11/25 00:29:02;;;;;;;14.00;3.47;;;;;;;10.07;73.37;100819.19;5030053;28;20120;-60
2022/11/25 00:31:30;;;;;;;14.63;3.53;;;;;;;10.03;73.53;100818.03;5027272;28;20041;-60
2022/11/25 00:33:57;;;;;;;16.00;3.20;;;;;;;10.04;73.45;100816.91;5026993;28;20519;-60
2022/11/25 00:36:26;;;;;;;12.88;3.30;;;;;;;10.02;73.65;100810.81;5028031;28;20040;-60
2022/11/25 00:38:53;;;;;;;13.65;2.92;;;;;;;10.02;73.67;100808.03;5024985;28;20099;-60
2022/11/25 00:46:47;;;;;;;16.17;3.88;;;;;;;10.01;73.75;100806.31;5028204;28;20554;-60
2022/11/25 00:49:12;;;;;;;16.65;3.95;;;;;;;10.03;73.87;100806.09;5027790;28;20087;-60
2022/11/25 00:51:37;;;;;;;13.65;3.30;;;;;;;10.04;73.79;100799.44;5031467;28;20026;-60
2022/11/25 00:54:03;;;;;;;12.18;2.88;;;;;;;10.07;73.83;100804.50;5031483;28;20029;-60
2022/11/25 00:56:29;;;;;;;13.20;3.00;;;;;;;10.05;74.04;100801.13;5031315;28;20503;-61
2022/11/25 00:58:55;;;;;;;13.85;3.45;;;;;;;10.01;73.92;100811.03;5030463;28;20124;-61
2022/11/25 01:01:20;;;;;;;11.80;3.30;;;;;;;10.04;73.85;100818.84;5028432;28;20171;-60
2022/11/25 01:03:48;;;;;;;14.77;3.50;;;;;;;10.00;74.18;100821.28;5031042;28;20067;-60
2022/11/25 01:06:14;;;;;;;13.80;3.05;;;;;;;10.06;73.79;100823.06;5031743;28;20052;-60
2022/11/25 01:08:39;;;;;;;19.38;3.60;;;;;;;10.02;74.14;100821.91;5031150;28;20479;-60
2022/11/25 01:11:07;;;;;;;25.38;3.97;;;;;;;10.05;74.15;100812.22;5030292;28;20045;-60
2022/11/25 01:13:33;;;;;;;14.50;3.00;;;;;;;10.04;74.23;100816.91;5031659;28;20687;-60
2022/11/25 01:16:03;;;;;;;14.52;3.15;;;;;;;10.00;74.78;100818.50;5030835;28;20032;-61
2022/11/25 01:18:29;;;;;;;17.00;3.85;;;;;;;10.02;74.23;100819.13;5029186;28;20033;-61
2022/11/25 01:20:55;;;;;;;14.20;3.13;;;;;;;10.03;74.41;100806.94;5029932;28;20045;-61
2022/11/25 01:23:20;;;;;;;14.15;3.28;;;;;;;10.04;74.60;100818.84;5031028;28;20072;-61
2022/11/25 01:25:45;;;;;;;14.35;3.55;;;;;;;10.03;74.61;100817.19;5030602;28;20025;-60
2022/11/25 01:28:12;;;;;;;15.27;3.00;;;;;;;10.07;74.64;100823.91;5031395;28;20171;-61
2022/11/25 01:30:38;;;;;;;22.63;3.90;;;;;;;10.05;74.51;100824.16;5029263;28;20021;-61
2022/11/25 01:33:03;;;;;;;15.70;3.55;;;;;;;10.06;74.59;100830.53;5029676;28;20558;-60
2022/11/25 01:35:29;;;;;;;20.30;3.72;;;;;;;10.08;74.39;100833.91;5030521;28;20037;-60
2022/11/25 01:37:54;;;;;;;17.90;3.30;;;;;;;10.08;74.55;100840.28;5030276;28;20490;-60
2022/11/25 01:40:19;;;;;;;16.40;4.00;;;;;;;10.12;74.58;100837.03;5029665;28;20037;-60
2022/11/25 01:42:46;;;;;;;13.30;3.08;;;;;;;10.14;74.32;100848.69;5029933;28;20040;-61
2022/11/25 01:45:20;;;;;;;13.13;3.35;;;;;;;10.16;74.66;100840.97;5031001;28;20056;-60
2022/11/25 01:47:46;;;;;;;12.10;2.90;;;;;;;10.14;74.62;100848.69;5029648;28;20044;-60
2022/11/25 01:50:12;;;;;;;15.40;3.58;;;;;;;10.13;74.74;100866.44;5030772;28;20021;-60
2022/11/25 01:52:45;;;;;;;17.20;3.88;;;;;;;10.16;74.55;100858.44;5029597;28;20385;-61
2022/11/25 01:55:16;;;;;;;15.70;3.42;;;;;;;10.13;75.13;100864.50;5031113;28;20060;-60
2022/11/25 01:57:46;;;;;;;16.52;3.63;;;;;;;10.14;74.91;100860.66;5030938;28;20477;-60
2022/11/25 02:00:12;;;;;;;14.13;4.05;;;;;;;10.13;74.88;100869.19;5025938;28;20055;-60
2022/11/25 02:02:37;;;;;;;13.30;3.00;;;;;;;10.13;75.46;100878.38;5028572;28;20040;-60
2022/11/25 02:05:08;;;;;;;11.43;2.92;;;;;;;10.15;75.31;100878.13;5030932;28;20029;-61
2022/11/25 02:07:38;;;;;;;16.67;2.70;;;;;;;10.14;75.28;100879.19;5028816;28;20120;-60
2022/11/25 02:10:08;;;;;;;17.52;3.05;;;;;;;10.18;75.07;100888.69;5030988;28;20025;-60
2022/11/25 02:12:35;;;;;;;16.55;3.47;;;;;;;10.19;75.15;100888.47;5029851;28;20037;-60
2022/11/25 02:15:01;;;;;;;18.35;3.50;;;;;;;10.21;75.11;100882.66;5010614;28;20121;-60
2022/11/25 02:17:27;;;;;;;15.70;3.67;;;;;;;10.25;74.96;100890.25;5012404;28;20029;-60
2022/11/25 02:20:01;;;;;;;15.70;3.05;;;;;;;10.28;75.04;100891.69;5030308;28;20026;-60
2022/11/25 02:22:50;;;;;;;13.98;3.30;;;;;;;10.34;74.69;100903.75;5030195;28;20108;-60
2022/11/25 02:25:27;;;;;;;12.80;2.85;;;;;;;10.32;74.87;100895.66;5030632;28;20030;-60
2022/11/25 02:28:11;;;;;;;16.10;3.63;;;;;;;10.35;75.10;100895.16;5030131;28;20041;-60
2022/11/25 02:30:36;;;;;;;15.73;3.78;;;;;;;10.36;75.38;100902.38;5029839;28;20068;-60
2022/11/25 02:33:02;;;;;;;11.93;3.08;;;;;;;10.33;75.76;100908.44;5029304;28;20698;-61
2022/11/25 02:35:33;;;;;;;13.70;2.72;;;;;;;10.33;75.65;100905.66;5026527;28;20037;-61
2022/11/25 02:38:21;;;;;;;11.98;2.47;;;;;;;10.36;75.59;100907.94;5029388;28;20040;-61
2022/11/25 02:41:00;;;;;;;15.23;3.03;;;;;;;10.34;75.85;100915.69;5030638;28;20037;-60
2022/11/25 02:43:26;;;;;;;9.55;2.47;;;;;;;10.35;75.96;100917.34;5028366;28;20030;-60
2022/11/25 02:45:56;;;;;;;13.48;2.97;;;;;;;10.33;76.26;100919.53;5029689;28;20033;-60
2022/11/25 02:48:22;;;;;;;12.32;2.80;;;;;;;10.34;76.23;100917.63;5030239;28;20056;-60
2022/11/25 02:50:47;;;;;;;15.13;3.65;;;;;;;10.27;76.62;100912.22;5029203;28;20026;-60
2022/11/25 02:53:14;;;;;;;15.05;2.83;;;;;;;10.30;76.90;100908.94;5028979;28;20033;-60
2022/11/25 02:55:39;;;;;;;14.18;2.72;;;;;;;10.27;77.43;100899.19;5025861;28;20507;-60
2022/11/25 02:58:04;;;;;;;15.50;3.40;;;;;;;10.27;77.05;100896.41;5029023;28;20038;-60
2022/11/25 03:00:30;;;;;;;12.82;2.78;;;;;;;10.26;77.51;100863.38;5030154;28;20112;-61
2022/11/25 03:02:55;;;;;;;11.35;2.83;;;;;;;10.27;77.07;100856.75;5028203;28;20033;-60
2022/11/25 03:05:21;;;;;;;9.70;2.50;;;;;;;10.25;77.33;100845.88;5028815;28;20588;-60
2022/11/25 03:07:47;;;;;;;8.02;2.30;;;;;;;10.26;77.30;100830.94;5030023;28;20755;-60
2022/11/25 03:10:12;;;;;;;8.75;2.35;;;;;;;10.24;77.45;100833.06;5028835;28;20033;-60
2022/11/25 03:12:37;;;;;;;13.57;2.95;;;;;;;10.24;77.62;100837.78;5028193;28;20822;-60
2022/11/25 03:15:03;;;;;;;9.30;2.45;;;;;;;10.18;77.94;100847.09;5029158;28;20183;-60
2022/11/25 03:17:28;;;;;;;10.57;2.50;;;;;;;10.19;77.72;100871.00;5029386;28;20037;-60
2022/11/25 03:19:54;;;;;;;8.40;2.20;;;;;;;10.17;78.15;100878.72;5027864;28;20481;-60
2022/11/25 03:22:19;;;;;;;12.32;2.80;;;;;;;10.17;77.88;100881.47;5029681;28;20405;-60
2022/11/25 03:24:44;;;;;;;9.25;2.03;;;;;;;10.18;77.71;100872.06;5027611;28;20037;-60
2022/11/25 03:27:09;;;;;;;12.23;2.60;;;;;;;10.14;77.73;100860.66;5029932;28;20049;-61
2022/11/25 03:29:35;;;;;;;12.23;2.33;;;;;;;10.12;77.66;100862.81;5029926;28;20841;-60
2022/11/25 03:32:00;;;;;;;8.43;2.25;;;;;;;10.12;77.59;100868.38;5029181;28;20037;-60
2022/11/25 03:34:26;;;;;;;9.25;2.30;;;;;;;10.13;77.58;100892.22;5028045;28;20049;-60
2022/11/25 03:36:57;;;;;;;7.25;1.90;;;;;;;10.12;77.79;100901.66;5028827;28;20033;-60
2022/11/25 03:39:22;;;;;;;8.00;1.65;;;;;;;10.13;77.61;100919.13;5030829;28;20079;-60
2022/11/25 03:41:48;;;;;;;7.15;1.83;;;;;;;10.13;77.63;100908.88;5031894;28;20431;-61
2022/11/25 03:44:13;;;;;;;10.63;1.90;;;;;;;10.12;77.68;100911.91;5030823;28;20036;-61
2022/11/25 03:46:39;;;;;;;8.60;2.20;;;;;;;10.09;77.35;100914.06;5032610;28;20060;-60
2022/11/25 03:49:04;;;;;;;5.75;1.73;;;;;;;10.11;77.63;100913.00;5033056;28;20079;-60
2022/11/25 03:51:30;;;;;;;6.78;1.50;;;;;;;10.08;77.86;100909.63;5032747;28;20014;-60
2022/11/25 03:53:55;;;;;;;6.40;1.85;;;;;;;10.04;77.75;100911.22;5030530;28;20056;-60
2022/11/25 03:56:20;;;;;;;6.20;1.70;;;;;;;10.05;77.70;100918.44;5032390;28;20021;-61
2022/11/25 03:58:46;;;;;;;5.15;1.88;;;;;;;10.07;77.74;100927.34;5032764;28;20502;-61
2022/11/25 04:01:11;;;;;;;6.53;1.50;;;;;;;10.02;77.89;100921.72;5031803;28;20034;-61
2022/11/25 04:03:36;;;;;;;6.43;1.45;;;;;;;10.04;77.32;100933.41;5032847;28;20055;-60
2022/11/25 04:06:01;;;;;;;8.43;1.80;;;;;;;10.00;77.42;100926.66;5032897;28;20037;-60
2022/11/25 04:08:27;;;;;;;6.40;1.70;;;;;;;9.99;77.46;100941.63;5031177;28;20481;-60
2022/11/25 04:10:52;;;;;;;5.85;1.77;;;;;;;10.00;77.57;100942.47;5032803;28;20033;-60
2022/11/25 04:13:17;;;;;;;6.32;1.60;;;;;;;9.98;77.72;100939.94;5032168;28;20030;-60
2022/11/25 04:15:48;;;;;;;5.53;1.50;;;;;;;9.97;77.50;100941.00;5032594;28;20132;-60
2022/11/25 04:18:14;;;;;;;6.03;1.60;;;;;;;9.95;77.61;100939.59;5028985;28;20037;-60
2022/11/25 04:20:40;;;;;;;7.18;1.70;;;;;;;9.95;77.32;100939.59;5031971;28;20039;-61
2022/11/25 04:23:06;;;;;;;5.78;1.40;;;;;;;9.92;77.34;100954.78;5032016;28;20400;-61
2022/11/25 04:25:32;;;;;;;5.05;1.60;;;;;;;9.90;77.33;100956.94;5031673;28;20458;-60
2022/11/25 04:27:57;;;;;;;3.45;1.30;;;;;;;9.92;77.40;100959.50;5029485;28;20034;-60
2022/11/25 04:30:22;;;;;;;4.65;1.40;;;;;;;9.86;76.87;100969.63;5032727;28;20453;-61
2022/11/25 04:32:48;;;;;;;2.80;1.00;;;;;;;9.87;76.99;100967.72;5032310;28;20061;-61
2022/11/25 04:35:13;;;;;;;3.85;1.17;;;;;;;9.82;77.09;100973.97;5031006;28;20036;-60
2022/11/25 04:37:38;;;;;;;5.40;1.48;;;;;;;9.79;77.23;100983.63;5030784;28;20045;-60
2022/11/25 04:40:04;;;;;;;4.50;1.40;;;;;;;9.82;77.10;100990.59;5031723;28;20104;-60
2022/11/25 04:42:33;;;;;;;3.28;1.30;;;;;;;9.78;77.03;100992.19;5031480;28;20036;-60
2022/11/25 04:45:06;;;;;;;6.78;1.40;;;;;;;9.77;77.60;100996.88;5032319;28;20021;-60
2022/11/25 04:47:32;;;;;;;5.53;1.50;;;;;;;9.77;77.19;100991.34;5021489;28;20025;-60
2022/11/25 04:49:58;;;;;;;2.53;1.17;;;;;;;9.78;77.36;100992.19;5030875;28;20037;-60
2022/11/25 04:52:23;;;;;;;5.03;1.77;;;;;;;9.73;77.38;100986.53;5031187;28;20029;-61
2022/11/25 04:54:48;;;;;;;3.83;1.20;;;;;;;9.78;77.06;100986.63;5031753;28;20469;-60
2022/11/25 04:57:15;;;;;;;4.28;1.50;;;;;;;9.77;77.08;100976.66;5031585;28;20073;-60
2022/11/25 04:59:42;;;;;;;7.45;1.90;;;;;;;9.75;77.37;101001.00;5030815;28;20128;-61
2022/11/25 05:02:22;;;;;;;4.90;1.40;;;;;;;9.76;77.25;101013.78;5031897;28;20022;-60
2022/11/25 05:04:49;;;;;;;3.30;1.50;;;;;;;9.75;77.12;101009.31;5030037;28;20030;-60
2022/11/25 05:07:16;;;;;;;3.08;1.30;;;;;;;9.75;77.19;101023.19;5026465;28;20029;-60
2022/11/25 05:09:41;;;;;;;3.83;1.65;;;;;;;9.78;77.01;101011.59;5026829;28;20113;-60
2022/11/25 05:12:11;;;;;;;3.70;1.77;;;;;;;9.75;77.20;101020.41;5031537;28;20153;-60
2022/11/25 05:14:36;;;;;;;4.38;1.67;;;;;;;9.74;76.78;101015.94;5030088;28;20108;-60
2022/11/25 05:17:03;;;;;;;4.68;1.80;;;;;;;9.67;77.29;101016.09;5030633;28;20116;-61
2022/11/25 05:19:28;;;;;;;6.20;1.70;;;;;;;9.67;77.04;101013.31;5031113;28;20516;-60
2022/11/25 05:21:54;;;;;;;4.85;1.60;;;;;;;9.63;76.95;101009.34;5031780;28;20109;-60
2022/11/25 05:24:22;;;;;;;5.95;2.20;;;;;;;9.64;76.99;101019.34;5030367;28;20068;-61
2022/11/25 05:26:47;;;;;;;6.43;2.03;;;;;;;9.59;77.14;101016.47;5031417;28;20032;-60
2022/11/25 05:29:12;;;;;;;5.63;2.00;;;;;;;9.64;77.04;101022.09;5030000;28;20033;-60
2022/11/25 05:31:38;;;;;;;8.48;1.90;;;;;;;9.63;77.05;101009.34;5028463;28;20148;-60
2022/11/25 05:34:03;;;;;;;6.90;2.30;;;;;;;9.62;76.97;101017.88;5027275;28;20050;-60
2022/11/25 05:36:29;;;;;;;6.57;2.33;;;;;;;9.57;77.18;101026.94;5011387;28;20033;-60
2022/11/25 05:38:57;;;;;;;6.32;2.50;;;;;;;9.54;77.17;101022.69;5026636;28;20037;-60
2022/11/25 05:41:23;;;;;;;7.30;2.65;;;;;;;9.52;77.32;101024.06;5030971;28;20491;-60
2022/11/25 05:43:48;;;;;;;8.48;2.55;;;;;;;9.53;77.16;101025.72;5031051;28;20014;-60
2022/11/25 05:46:14;;;;;;;8.50;2.65;;;;;;;9.49;76.86;101030.91;5030227;28;20029;-60
2022/11/25 05:48:39;;;;;;;5.55;2.95;;;;;;;9.50;77.13;101037.28;5029905;28;20041;-60
2022/11/25 05:51:05;;;;;;;8.55;2.80;;;;;;;9.43;77.22;101037.44;5031021;28;20029;-60
2022/11/25 05:53:31;;;;;;;6.20;2.60;;;;;;;9.45;77.23;101035.25;5030496;28;20033;-60
2022/11/25 05:56:01;;;;;;;8.32;3.25;;;;;;;9.43;77.14;101044.88;5030586;28;20494;-59
2022/11/25 05:58:28;;;;;;;14.18;3.35;;;;;;;9.43;77.28;101051.28;5028523;28;20368;-60
2022/11/25 06:00:54;;;;;;;9.80;3.40;;;;;;;9.40;77.63;101045.38;5018424;28;20028;-59
2022/11/25 06:03:23;;;;;;;9.60;3.35;;;;;;;9.36;77.18;101052.47;5029014;28;20033;-59
2022/11/25 06:05:49;;;;;;;8.32;3.25;;;;;;;9.31;77.14;101055.94;5028891;28;20384;-60
2022/11/25 06:08:14;;;;;;;8.75;3.55;;;;;;;9.35;77.70;101051.63;5029048;28;20041;-60
2022/11/25 06:10:40;;;;;;;10.95;3.58;;;;;;;9.35;77.25;101051.63;5029223;28;20065;-60
2022/11/25 06:13:06;;;;;;;9.40;3.67;;;;;;;9.32;77.28;101057.66;5026813;28;20025;-60
2022/11/25 06:15:32;;;;;;;10.93;4.00;;;;;;;9.32;77.28;101050.19;5029851;28;20029;-60
2022/11/25 06:17:57;;;;;;;8.02;3.83;;;;;;;9.32;77.34;101060.44;5029645;28;20040;-60
2022/11/25 06:20:22;;;;;;;10.20;4.47;;;;;;;9.32;77.31;101065.97;5029803;28;20057;-60
2022/11/25 06:22:48;;;;;;;8.50;4.15;;;;;;;9.30;77.35;101073.66;5030634;28;20108;-60
2022/11/25 06:25:13;;;;;;;11.95;4.55;;;;;;;9.35;77.14;101073.78;5014075;28;20030;-60
2022/11/25 06:27:38;;;;;;;8.18;3.80;;;;;;;9.35;77.11;101073.78;5019263;28;20079;-60
2022/11/25 06:30:04;;;;;;;8.75;4.18;;;;;;;9.32;77.10;101069.56;5030047;28;20036;-60
2022/11/25 06:32:29;;;;;;;11.40;4.32;;;;;;;9.32;77.01;101080.66;5030281;28;20033;-60
2022/11/25 06:34:55;;;;;;;9.60;3.75;;;;;;;9.34;77.21;101094.25;5029219;28;20048;-60
2022/11/25 06:37:20;;;;;;;8.77;4.15;;;;;;;9.33;76.72;101089.81;5023859;28;20072;-60
2022/11/25 06:39:46;;;;;;;8.82;4.13;;;;;;;9.36;77.06;101094.03;5029035;28;20041;-60
2022/11/25 06:42:11;;;;;;;8.57;3.85;;;;;;;9.36;76.93;101099.59;5026483;28;20038;-60
2022/11/25 06:44:37;;;;;;;8.55;3.42;;;;;;;9.36;77.12;101096.81;5025058;28;20025;-60
2022/11/25 06:47:02;;;;;;;12.35;3.53;;;;;;;9.36;76.64;101103.19;5024403;28;20017;-60
2022/11/25 06:49:28;;;;;;;9.05;3.20;;;;;;;9.33;76.39;101100.88;5027524;28;20088;-60
2022/11/25 06:51:53;;;;;;;8.80;3.60;;;;;;;9.34;76.43;101099.78;5026304;28;20025;-60
2022/11/25 06:54:18;;;;;;;8.65;3.85;;;;;;;9.31;76.76;101105.81;5024817;28;20033;-60
2022/11/25 06:56:44;;;;;;;7.78;3.30;;;;;;;9.33;76.40;101098.13;5022034;28;20033;-59
2022/11/25 06:59:09;;;;;;;8.90;3.30;;;;;;;9.28;76.93;101107.16;5028452;28;20037;-60
2022/11/25 07:01:34;;;;;;;8.80;3.20;;;;;;;9.25;77.01;101107.63;5024528;28;20134;-60
2022/11/25 07:04:03;;;;;;;7.68;2.85;;;;;;;9.27;77.08;101116.53;5021937;28;20055;-60
2022/11/25 07:06:29;;;;;;;9.98;2.38;;;;;;;9.28;76.63;101117.38;5021831;28;20042;-60
2022/11/25 07:08:55;;;;;;;9.57;2.95;;;;;;;9.27;76.97;101115.69;5020842;28;20041;-61
2022/11/25 07:11:22;;;;;;;8.90;3.45;;;;;;;9.28;77.05;101125.69;5028429;28;20033;-60
2022/11/25 07:13:52;;;;;;;6.53;2.90;;;;;;;9.27;76.51;101121.22;5029116;28;20041;-60
2022/11/25 07:16:17;;;;;;;8.75;3.05;;;;;;;9.25;76.54;101138.09;5026458;28;20063;-60
2022/11/25 07:18:43;;;;;;;7.85;2.95;;;;;;;9.24;76.54;101144.72;5022699;28;20041;-60
2022/11/25 07:21:16;;;;;;;12.45;2.88;;;;;;;9.23;76.25;101145.78;5028654;28;20037;-60
2022/11/25 07:23:44;;;;;;;10.05;2.92;;;;;;;9.23;76.41;101137.47;5009453;28;20021;-60
2022/11/25 07:26:20;;;;;;;9.02;2.55;;;;;;;9.17;76.48;101151.44;5027857;28;20384;-59
2022/11/25 07:28:46;;;;;;;10.60;3.08;;;;;;;9.20;76.64;101162.06;5031037;28;20443;-60
2022/11/25 07:31:20;;;;;;;7.55;2.53;;;;;;;9.18;76.74;101156.72;5019986;28;20029;-61
2022/11/25 07:33:46;;;;;;;6.18;2.63;;;;;;;9.22;76.73;101157.94;5023957;28;20057;-61
2022/11/25 07:36:13;;;;;;;6.15;3.03;;;;;;;9.21;76.58;101167.34;5026773;28;20033;-59
2022/11/25 07:38:39;;;;;;;5.15;2.65;;;;;;;9.18;76.54;101172.50;5021175;28;20045;-60
2022/11/25 07:41:16;;;;;;;7.72;2.67;;;;;;;9.20;76.41;101181.44;5026959;28;20033;-61
2022/11/25 07:43:47;;;;;;;9.00;3.03;;;;;;;9.14;76.76;101185.97;5028044;28;20033;-62
2022/11/25 07:46:27;;;;;;;7.22;2.88;;;;;;;9.16;76.75;101192.13;5028763;28;20026;-60
2022/11/25 07:48:55;;;;;;;8.00;2.92;;;;;;;9.14;76.75;101207.28;5024617;28;20527;-60
2022/11/25 07:51:32;;;;;;;9.00;3.15;;;;;;;9.16;76.52;101203.22;5018891;28;20025;-61
2022/11/25 07:53:59;;;;;;;8.52;2.83;;;;;;;9.18;76.88;101219.59;5029211;28;20083;-60
2022/11/25 07:56:25;;;;;;;7.18;2.67;;;;;;;9.17;76.80;101209.59;5040367;28;20554;-61
2022/11/25 07:58:51;;;;;;;8.70;3.42;;;;;;;9.16;76.62;101213.44;5049677;28;20079;-61
2022/11/25 08:01:17;;;;;;;13.98;3.42;;;;;;;9.18;77.15;101212.13;5038647;28;20021;-61
2022/11/25 08:03:44;;;;;;;8.15;3.20;;;;;;;9.15;76.71;101217.28;5028610;28;20103;-59
2022/11/25 08:06:15;;;;;;;8.13;2.78;;;;;;;9.17;76.74;101231.75;5018885;28;20029;-60
2022/11/25 08:08:41;;;;;;;8.70;2.95;;;;;;;9.19;76.93;101235.97;5013697;28;20030;-60
2022/11/25 08:11:15;;;;;;;8.70;3.10;;;;;;;9.20;76.68;101237.66;5011793;28;20465;-60
2022/11/25 08:13:40;;;;;;;6.30;2.90;;;;;;;9.23;76.39;101241.88;5010767;28;20486;-60
2022/11/25 08:16:07;;;;;;;10.65;3.20;;;;;;;9.19;76.36;101248.97;5010971;28;20032;-60
2022/11/25 08:18:32;;;;;;;7.75;2.67;;;;;;;9.21;76.56;101249.59;5021586;28;20040;-61
2022/11/25 08:21:03;;;;;;;10.20;2.92;;;;;;;9.20;76.91;101257.06;5030250;28;20416;-61
2022/11/25 08:23:29;;;;;;;7.15;2.70;;;;;;;9.19;76.83;101260.03;5029431;28;20508;-60
2022/11/25 08:25:55;;;;;;;6.65;2.55;;;;;;;9.22;76.41;101257.66;5020136;28;20021;-61
2022/11/25 08:28:20;;;;;;;10.10;3.00;;;;;;;9.25;76.36;101268.28;5030824;28;20043;-61
2022/11/25 08:30:45;;;;;;;9.05;2.90;;;;;;;9.28;76.31;101259.50;5028567;28;20646;-61
2022/11/25 08:33:11;;;;;;;8.05;2.38;;;;;;;9.28;76.48;101266.97;5031369;28;20052;-61
2022/11/25 08:35:36;;;;;;;7.88;2.70;;;;;;;9.27;76.73;101259.72;5030745;28;20307;-61
2022/11/25 08:38:07;;;;;;;7.35;2.80;;;;;;;9.28;77.03;101256.72;5031110;28;20043;-61
2022/11/25 08:40:34;;;;;;;10.57;3.20;;;;;;;9.31;76.79;101260.94;5030525;28;20043;-61
2022/11/25 08:43:00;;;;;;;7.25;2.95;;;;;;;9.32;76.43;101263.50;5029763;28;20030;-60
2022/11/25 08:45:25;;;;;;;6.28;2.90;;;;;;;9.37;76.44;101267.47;5030299;28;20487;-61
2022/11/25 08:47:51;;;;;;;8.73;2.88;;;;;;;9.36;76.56;101263.88;5030217;28;20397;-61
2022/11/25 08:50:16;;;;;;;9.63;3.03;;;;;;;9.41;76.45;101266.75;5030387;28;20036;-60
2022/11/25 08:52:42;;;;;;;7.07;2.90;;;;;;;9.38;76.79;101271.94;5031299;28;20029;-60
2022/11/25 08:55:08;;;;;;;10.60;3.33;;;;;;;9.42;76.99;101276.75;5030607;28;20034;-60
2022/11/25 08:57:33;;;;;;;7.88;3.25;;;;;;;9.43;76.62;101269.28;5030637;28;20052;-60
2022/11/25 08:59:59;;;;;;;10.85;3.35;;;;;;;9.49;76.52;101277.50;5029859;28;20067;-61
2022/11/25 09:02:24;;;;;;;8.02;3.03;;;;;;;9.50;76.50;101276.44;5028695;28;20029;-59
2022/11/25 09:04:50;;;;;;;11.60;3.28;;;;;;;9.52;76.08;101285.38;5031127;28;20029;-59
2022/11/25 09:07:15;;;;;;;9.80;3.80;;;;;;;9.55;76.55;101281.28;5028669;28;20021;-61
2022/11/25 09:09:40;;;;;;;8.15;3.50;;;;;;;9.57;76.55;101293.81;5015363;28;20028;-60
2022/11/25 09:12:06;;;;;;;9.02;3.10;;;;;;;9.57;76.26;101291.03;5031085;28;20029;-61
2022/11/25 09:14:31;;;;;;;12.27;3.47;;;;;;;9.61;76.33;101293.34;5030585;28;20109;-61
2022/11/25 09:16:57;;;;;;;8.13;3.47;;;;;;;9.66;76.35;101301.78;5029513;28;20095;-61
2022/11/25 09:19:22;;;;;;;8.85;3.70;;;;;;;9.70;76.57;101303.00;5027811;28;20115;-61
2022/11/25 09:21:48;;;;;;;7.40;3.22;;;;;;;9.80;77.35;101308.81;5028984;28;20116;-61
2022/11/25 09:24:13;;;;;;;14.75;4.35;;;;;;;9.89;76.45;101307.41;5029476;28;20056;-61
2022/11/25 09:26:39;;;;;;;12.77;3.72;;;;;;;10.01;76.28;101307.41;5020943;28;20485;-60
2022/11/25 09:29:05;;;;;;;11.07;3.35;;;;;;;10.17;76.29;101312.25;5030582;28;20456;-61
2022/11/25 09:31:31;;;;;;;10.88;4.18;;;;;;;10.28;75.76;101311.47;5029731;28;20018;-60
2022/11/25 09:33:56;;;;;;;11.63;3.88;;;;;;;10.40;75.19;101319.78;5026281;28;20095;-60
2022/11/25 09:36:23;;;;;;;9.77;3.35;;;;;;;10.50;75.05;101322.84;5029889;28;20104;-61
2022/11/25 09:38:49;;;;;;;13.43;3.70;;;;;;;10.63;75.06;101324.50;5018757;28;20042;-61
2022/11/25 09:48:18;;;;;;;11.05;3.42;;;;;;;11.09;73.95;101339.44;5021175;28;20095;-60
2022/11/25 09:51:16;;;;;;;10.65;3.50;;;;;;;11.26;73.30;101342.28;5015604;28;20483;-60
2022/11/25 09:53:47;;;;;;;10.70;3.45;;;;;;;11.39;72.32;101344.78;5019675;28;20022;-60
2022/11/25 09:56:31;;;;;;;12.40;3.35;;;;;;;11.51;72.57;101341.94;5030446;28;20037;-61
2022/11/25 09:59:05;;;;;;;8.82;3.45;;;;;;;11.65;71.87;101350.84;5029795;28;20029;-60
2022/11/25 10:01:44;;;;;;;8.07;3.17;;;;;;;11.75;71.28;101348.25;5028292;28;20025;-60
2022/11/25 10:04:23;;;;;;;8.60;3.03;;;;;;;11.85;71.19;101359.63;5029917;28;20108;-60
2022/11/25 10:06:54;;;;;;;11.27;3.70;;;;;;;11.90;70.34;101353.31;5029597;28;20076;-60
2022/11/25 10:09:23;;;;;;;11.10;3.50;;;;;;;11.97;70.42;101365.97;5029609;28;20021;-60
2022/11/25 10:11:52;;;;;;;7.88;2.90;;;;;;;12.01;70.58;101360.75;5030032;28;20030;-60
2022/11/25 10:14:31;;;;;;;9.10;3.50;;;;;;;12.06;70.13;101363.63;5029050;28;20029;-62
2022/11/25 10:17:12;;;;;;;14.88;3.80;;;;;;;12.12;69.74;101367.34;5029495;28;20036;-60
2022/11/25 10:19:55;;;;;;;9.20;3.10;;;;;;;12.20;69.88;101375.28;5019467;28;20443;-60
2022/11/25 10:22:25;;;;;;;12.05;3.33;;;;;;;12.27;68.75;101384.31;5024874;28;20461;-60
2022/11/25 10:24:53;;;;;;;7.43;3.28;;;;;;;12.30;68.75;101397.75;5029811;28;20033;-60
2022/11/25 10:27:53;;;;;;;12.00;3.53;;;;;;;12.38;69.54;101399.25;5024273;28;20049;-60
2022/11/25 10:30:24;;;;;;;10.88;3.25;;;;;;;12.42;68.78;101398.50;5009611;28;20508;-60
2022/11/25 10:33:17;;;;;;;10.63;2.80;;;;;;;12.46;68.35;101402.47;5025495;28;20048;-59
2022/11/25 10:35:58;;;;;;;8.85;2.80;;;;;;;12.46;67.74;101396.91;5028629;28;20044;-60
2022/11/25 10:38:34;;;;;;;10.77;3.05;;;;;;;12.49;67.88;101406.66;5013468;28;20033;-61
2022/11/25 10:41:02;;;;;;;10.32;3.30;;;;;;;12.51;67.56;101404.50;5026867;28;20385;-60
2022/11/25 10:43:28;;;;;;;6.95;2.90;;;;;;;12.55;67.74;101404.84;5033978;28;20025;-60
2022/11/25 10:46:07;;;;;;;14.15;3.08;;;;;;;12.62;67.52;101411.09;5029189;28;20419;-60
2022/11/25 10:48:44;;;;;;;8.05;2.67;;;;;;;12.63;67.34;101412.78;5029575;28;20104;-61
2022/11/25 10:51:29;;;;;;;13.15;3.10;;;;;;;12.66;67.25;101418.69;5028611;28;20365;-61
2022/11/25 10:54:19;;;;;;;10.50;2.80;;;;;;;12.69;67.43;101418.19;5028630;28;20060;-59
2022/11/25 10:57:15;;;;;;;5.95;2.80;;;;;;;12.68;67.42;101423.97;5024923;28;20041;-61
2022/11/25 10:59:40;;;;;;;10.52;2.53;;;;;;;12.66;66.45;101420.63;5029034;28;20129;-60
2022/11/25 11:02:18;;;;;;;11.70;2.92;;;;;;;12.67;66.56;101425.09;5037335;28;20756;-59
2022/11/25 11:04:52;;;;;;;7.75;2.45;;;;;;;12.66;66.39;101432.59;5026484;28;20029;-59
2022/11/25 11:07:17;;;;;;;11.10;2.80;;;;;;;12.64;66.15;101433.94;5034672;28;20366;-60
2022/11/25 11:09:44;;;;;;;6.07;2.35;;;;;;;12.64;66.21;101431.16;5026382;28;20551;-61
2022/11/25 11:12:13;;;;;;;13.20;2.80;;;;;;;12.62;66.23;101436.16;5022461;28;20041;-61
2022/11/25 11:14:38;;;;;;;7.47;2.33;;;;;;;12.65;66.67;101441.19;5034126;28;20201;-61
2022/11/25 11:17:03;;;;;;;12.18;2.95;;;;;;;12.59;66.19;101442.22;5040469;28;20111;-62
2022/11/25 11:19:30;;;;;;;9.48;2.92;;;;;;;12.58;66.25;101446.94;5039634;28;20033;-61
2022/11/25 11:22:13;;;;;;;7.15;2.30;;;;;;;12.56;66.02;101456.63;5029768;28;20068;-61
2022/11/25 11:24:40;;;;;;;12.00;2.80;;;;;;;12.55;66.24;101455.81;5028414;28;20033;-61
2022/11/25 11:27:08;;;;;;;7.47;2.80;;;;;;;12.56;66.38;101463.06;5022284;28;20033;-61
2022/11/25 11:29:37;;;;;;;9.65;2.22;;;;;;;12.56;65.92;101459.44;5028708;28;20038;-62
2022/11/25 11:32:06;;;;;;;11.73;2.55;;;;;;;12.52;65.94;101467.44;5033662;28;20097;-61
2022/11/25 11:35:00;;;;;;;6.63;2.20;;;;;;;12.52;66.41;101471.06;5031562;28;20092;-63
2022/11/25 11:37:43;;;;;;;8.98;2.33;;;;;;;12.52;65.90;101481.34;5027298;28;20045;-62
2022/11/25 11:40:29;;;;;;;9.95;2.85;;;;;;;12.48;66.13;101483.78;5027368;28;20764;-61
2022/11/25 11:42:57;;;;;;;9.73;2.70;;;;;;;12.45;65.12;101481.50;5033501;28;20079;-60